createdAt,value
2019-04-29T00:00:40.622Z,8.38
2019-04-29T00:03:12.154Z,8.35
2019-04-29T00:05:41.339Z,8.08
2019-04-29T00:08:10.434Z,8.39
2019-04-29T00:10:39.541Z,8.64
2019-04-29T00:13:09.773Z,9.09
2019-04-29T00:15:57.403Z,8.95
2019-04-29T00:18:36.604Z,8.46
2019-04-29T00:21:05.673Z,8.30
2019-04-29T00:23:35.491Z,9.07
2019-04-29T00:26:09.113Z,8.66
2019-04-29T00:28:38.158Z,9.00
2019-04-29T00:31:10.059Z,8.85
2019-04-29T00:33:40.764Z,8.29
2019-04-29T00:36:11.242Z,8.15
2019-04-29T00:38:59.427Z,8.24
2019-04-29T00:41:44.674Z,8.70
2019-04-29T00:44:18.205Z,8.98
2019-04-29T00:46:47.274Z,8.67
2019-04-29T00:49:16.373Z,8.69
2019-04-29T00:51:45.436Z,9.14
2019-04-29T00:54:38.047Z,8.58
2019-04-29T00:57:07.174Z,8.43
2019-04-29T00:59:36.300Z,8.41
2019-04-29T01:02:16.674Z,8.40
2019-04-29T01:04:45.756Z,8.70
2019-04-29T01:07:15.139Z,9.18
2019-04-29T01:09:47.205Z,8.32
2019-04-29T01:12:16.279Z,8.37
2019-04-29T01:14:45.667Z,8.57
2019-04-29T01:17:14.755Z,8.71
2019-04-29T01:19:47.973Z,9.03
2019-04-29T01:22:21.508Z,8.70
2019-04-29T01:24:50.595Z,8.62
2019-04-29T01:27:27.328Z,8.11
2019-04-29T01:29:56.393Z,8.79
2019-04-29T01:32:29.161Z,8.95
2019-04-29T01:34:58.672Z,8.44
2019-04-29T01:37:39.391Z,9.21
2019-04-29T01:40:29.106Z,8.96
2019-04-29T01:43:03.474Z,9.09
2019-04-29T01:45:32.694Z,8.78
2019-04-29T01:48:01.772Z,8.52
2019-04-29T01:50:31.348Z,9.21
2019-04-29T01:53:01.650Z,9.31
2019-04-29T01:55:36.595Z,9.61
2019-04-29T01:58:07.829Z,9.45
2019-04-29T02:00:37.044Z,9.70
2019-04-29T02:03:06.100Z,9.78
2019-04-29T02:05:35.154Z,3.28
2019-04-29T02:08:04.221Z,9.61
2019-04-29T02:10:34.729Z,9.43
2019-04-29T02:13:04.628Z,9.71
2019-04-29T02:15:33.730Z,9.33
2019-04-29T02:18:07.254Z,9.74
2019-04-29T02:20:39.294Z,10.06
2019-04-29T02:23:30.935Z,10.01
2019-04-29T02:26:00.023Z,10.28
2019-04-29T02:28:30.277Z,9.39
2019-04-29T02:31:18.563Z,9.36
2019-04-29T02:33:50.666Z,9.54
2019-04-29T02:36:25.058Z,9.64
2019-04-29T02:39:11.937Z,10.06
2019-04-29T02:41:58.440Z,9.95
2019-04-29T02:44:28.694Z,9.60
2019-04-29T02:46:58.249Z,9.79
2019-04-29T02:49:28.667Z,9.58
2019-04-29T02:51:58.264Z,9.65
2019-04-29T02:54:29.874Z,10.03
2019-04-29T02:57:08.691Z,9.83
2019-04-29T02:59:42.396Z,10.20
2019-04-29T03:02:29.619Z,9.01
2019-04-29T03:05:26.890Z,9.58
2019-04-29T03:07:57.381Z,9.80
2019-04-29T03:10:26.520Z,9.70
2019-04-29T03:12:59.155Z,9.72
2019-04-29T03:15:35.199Z,9.50
2019-04-29T03:18:05.385Z,9.91
2019-04-29T03:20:57.949Z,8.05
2019-04-29T03:23:27.086Z,10.07
2019-04-29T03:25:56.230Z,9.67
2019-04-29T03:28:25.592Z,0.74
2019-04-29T03:30:54.828Z,10.13
2019-04-29T03:33:25.514Z,9.92
2019-04-29T03:35:58.804Z,9.86
2019-04-29T03:38:33.891Z,9.66
2019-04-29T03:41:03.107Z,9.69
2019-04-29T03:43:32.219Z,9.85
2019-04-29T03:46:01.421Z,9.90
2019-04-29T03:48:30.601Z,9.94
2019-04-29T03:50:59.790Z,10.03
2019-04-29T03:53:28.933Z,9.88
2019-04-29T03:55:57.962Z,9.81
2019-04-29T03:58:27.027Z,9.05
2019-04-29T04:01:03.441Z,9.06
2019-04-29T04:03:41.011Z,9.18
2019-04-29T04:06:25.723Z,9.14
2019-04-29T04:09:13.348Z,9.51
2019-04-29T04:11:42.429Z,9.81
2019-04-29T04:14:11.476Z,9.37
2019-04-29T04:16:58.427Z,7.31
2019-04-29T04:19:28.751Z,9.42
2019-04-29T04:21:59.194Z,9.62
2019-04-29T04:24:30.687Z,9.89
2019-04-29T04:26:59.756Z,9.63
2019-04-29T04:29:28.874Z,9.51
2019-04-29T04:31:59.124Z,9.29
2019-04-29T04:34:29.673Z,9.86
2019-04-29T04:37:00.480Z,9.79
2019-04-29T04:39:31.635Z,10.13
2019-04-29T04:42:02.840Z,9.85
2019-04-29T04:44:50.692Z,8.78
2019-04-29T04:47:22.155Z,8.84
2019-04-29T04:49:51.244Z,9.11
2019-04-29T04:52:20.377Z,9.00
2019-04-29T04:54:51.364Z,9.22
2019-04-29T04:57:20.468Z,8.55
2019-04-29T04:59:49.585Z,9.19
2019-04-29T05:02:18.707Z,8.93
2019-04-29T05:04:47.778Z,9.22
2019-04-29T05:07:16.911Z,9.36
2019-04-29T05:09:46.027Z,9.72
2019-04-29T05:12:16.997Z,9.25
2019-04-29T05:14:46.180Z,9.35
2019-04-29T05:17:15.484Z,9.43
2019-04-29T05:19:45.731Z,8.63
2019-04-29T05:22:17.124Z,8.59
2019-04-29T05:24:46.190Z,8.61
2019-04-29T05:27:15.288Z,8.59
2019-04-29T05:29:44.480Z,8.58
2019-04-29T05:32:14.948Z,8.87
2019-04-29T05:34:48.212Z,8.54
2019-04-29T05:37:27.409Z,9.17
2019-04-29T05:39:59.649Z,9.29
2019-04-29T05:42:29.006Z,8.92
2019-04-29T05:45:20.226Z,9.16
2019-04-29T05:47:57.107Z,9.09
2019-04-29T05:50:52.059Z,9.19
2019-04-29T05:53:33.781Z,8.74
2019-04-29T05:56:04.258Z,9.05
2019-04-29T05:58:39.970Z,8.54
2019-04-29T06:01:16.770Z,9.30
2019-04-29T06:03:48.905Z,9.63
2019-04-29T06:06:23.293Z,9.87
2019-04-29T06:08:52.617Z,10.24
2019-04-29T06:11:23.556Z,10.40
2019-04-29T06:13:55.858Z,10.41
2019-04-29T06:16:25.673Z,10.05
2019-04-29T06:19:00.087Z,9.50
2019-04-29T06:21:25.626Z,9.67
2019-04-29T06:24:12.747Z,10.06
2019-04-29T06:26:43.918Z,10.06
2019-04-29T06:29:17.812Z,9.53
2019-04-29T06:31:49.092Z,9.41
2019-04-29T06:34:18.702Z,9.59
2019-04-29T06:36:55.777Z,9.75
2019-04-29T06:39:28.023Z,9.41
2019-04-29T06:42:01.050Z,9.70
2019-04-29T06:44:30.386Z,9.94
2019-04-29T06:46:59.633Z,9.94
2019-04-29T06:49:28.727Z,9.87
2019-04-29T06:52:02.806Z,10.81
2019-04-29T06:54:34.677Z,10.96
2019-04-29T06:57:05.109Z,10.26
2019-04-29T06:59:47.532Z,10.69
2019-04-29T07:02:17.449Z,10.78
2019-04-29T07:04:49.842Z,10.39
2019-04-29T07:07:20.188Z,10.55
2019-04-29T07:09:56.702Z,10.73
2019-04-29T07:12:24.577Z,10.37
2019-04-29T07:14:56.040Z,10.75
2019-04-29T07:17:25.141Z,10.48
2019-04-29T07:20:01.970Z,10.57
2019-04-29T07:22:27.570Z,10.98
2019-04-29T07:25:00.719Z,10.64
2019-04-29T07:27:30.049Z,11.53
2019-04-29T07:30:06.591Z,11.54
2019-04-29T07:32:36.920Z,11.23
2019-04-29T07:35:09.860Z,11.41
2019-04-29T07:37:43.330Z,10.07
2019-04-29T07:40:15.896Z,11.42
2019-04-29T07:42:45.978Z,11.20
2019-04-29T07:45:29.207Z,11.80
2019-04-29T07:48:07.839Z,12.08
2019-04-29T07:50:36.905Z,11.65
2019-04-29T07:53:06.378Z,12.47
2019-04-29T07:55:37.532Z,11.95
2019-04-29T07:58:08.504Z,11.70
2019-04-29T08:00:38.575Z,12.53
2019-04-29T08:03:09.932Z,12.07
2019-04-29T08:05:39.321Z,11.89
2019-04-29T08:08:08.910Z,12.26
2019-04-29T08:10:51.484Z,11.83
2019-04-29T08:13:10.399Z,12.39
2019-04-29T08:15:41.496Z,12.18
2019-04-29T08:18:11.258Z,11.93
2019-04-29T08:20:59.763Z,11.81
2019-04-29T08:23:33.095Z,12.10
2019-04-29T08:26:02.602Z,11.90
2019-04-29T08:28:31.861Z,12.36
2019-04-29T08:31:02.308Z,10.90
2019-04-29T08:33:35.021Z,12.46
2019-04-29T08:36:07.862Z,12.78
2019-04-29T08:38:37.400Z,12.61
2019-04-29T08:41:06.499Z,12.94
2019-04-29T08:44:15.198Z,13.15
2019-04-29T08:46:51.388Z,12.97
2019-04-29T08:49:19.867Z,13.30
2019-04-29T08:51:51.510Z,13.24
2019-04-29T08:54:21.403Z,11.11
2019-04-29T08:57:07.585Z,13.11
2019-04-29T08:59:25.810Z,13.04
2019-04-29T09:01:54.919Z,12.98
2019-04-29T09:04:28.606Z,12.61
2019-04-29T09:06:56.552Z,12.34
2019-04-29T09:09:29.549Z,12.67
2019-04-29T09:11:59.730Z,12.76
2019-04-29T09:14:29.118Z,13.57
2019-04-29T09:16:58.570Z,13.71
2019-04-29T09:19:29.630Z,13.97
2019-04-29T09:22:04.814Z,13.09
2019-04-29T09:24:43.585Z,13.23
2019-04-29T09:27:16.241Z,13.63
2019-04-29T09:29:48.158Z,13.87
2019-04-29T09:32:19.459Z,13.38
2019-04-29T09:34:48.555Z,13.97
2019-04-29T09:37:18.550Z,13.79
2019-04-29T09:39:50.559Z,14.18
2019-04-29T09:42:37.248Z,13.92
2019-04-29T09:45:25.722Z,13.71
2019-04-29T09:47:54.943Z,13.44
2019-04-29T09:50:24.284Z,13.10
2019-04-29T09:52:53.957Z,13.71
2019-04-29T09:55:27.238Z,14.22
2019-04-29T09:57:56.371Z,14.42
2019-04-29T10:00:42.802Z,14.24
2019-04-29T10:03:33.273Z,14.46
2019-04-29T10:06:12.476Z,13.93
2019-04-29T10:08:45.650Z,13.97
2019-04-29T10:11:14.876Z,13.87
2019-04-29T10:13:44.097Z,13.86
2019-04-29T10:16:27.453Z,14.59
2019-04-29T10:19:06.910Z,14.43
2019-04-29T10:21:45.830Z,14.54
2019-04-29T10:24:18.049Z,14.20
2019-04-29T10:26:50.182Z,13.31
2019-04-29T10:29:25.957Z,14.30
2019-04-29T10:31:55.042Z,14.39
2019-04-29T10:34:27.060Z,14.52
2019-04-29T10:36:58.280Z,14.86
2019-04-29T10:39:44.964Z,14.76
2019-04-29T10:42:17.511Z,14.60
2019-04-29T10:45:07.555Z,14.92
2019-04-29T10:47:46.132Z,14.43
2019-04-29T10:50:19.853Z,14.43
2019-04-29T10:52:54.885Z,14.57
2019-04-29T10:55:30.129Z,14.91
2019-04-29T10:58:00.250Z,15.51
2019-04-29T11:01:14.118Z,15.42
2019-04-29T11:03:44.756Z,14.99
2019-04-29T11:06:17.336Z,14.81
2019-04-29T11:09:14.317Z,15.56
2019-04-29T11:11:45.647Z,15.22
2019-04-29T11:14:14.867Z,15.25
2019-04-29T11:16:47.458Z,15.15
2019-04-29T11:19:17.565Z,15.56
2019-04-29T11:21:46.991Z,14.92
2019-04-29T11:24:32.354Z,14.54
2019-04-29T11:27:12.652Z,15.02
2019-04-29T11:29:46.388Z,14.88
2019-04-29T11:32:24.930Z,14.43
2019-04-29T11:35:15.310Z,14.44
2019-04-29T11:37:45.093Z,14.76
2019-04-29T11:40:20.528Z,14.86
2019-04-29T11:43:10.794Z,15.07
2019-04-29T11:45:40.373Z,14.88
2019-04-29T11:48:15.513Z,15.12
2019-04-29T11:50:55.794Z,15.01
2019-04-29T11:53:28.364Z,15.04
2019-04-29T11:56:03.176Z,14.80
2019-04-29T11:58:45.325Z,15.40
2019-04-29T12:01:47.170Z,14.73
2019-04-29T12:04:33.554Z,15.17
2019-04-29T12:07:03.634Z,13.14
2019-04-29T12:09:33.091Z,14.83
2019-04-29T12:12:02.361Z,14.90
2019-04-29T12:14:51.463Z,14.79
2019-04-29T12:17:25.993Z,14.56
2019-04-29T12:19:58.111Z,15.11
2019-04-29T12:22:30.886Z,14.20
2019-04-29T12:24:58.071Z,15.04
2019-04-29T12:27:29.458Z,14.57
2019-04-29T12:29:59.551Z,13.75
2019-04-29T12:32:39.368Z,14.70
2019-04-29T12:35:26.192Z,15.05
2019-04-29T12:38:14.481Z,14.38
2019-04-29T12:41:20.643Z,14.41
2019-04-29T12:44:00.619Z,14.72
2019-04-29T12:46:36.413Z,14.42
2019-04-29T12:49:08.458Z,14.81
2019-04-29T12:51:37.509Z,14.99
2019-04-29T12:54:08.198Z,15.03
2019-04-29T12:56:47.394Z,14.69
2019-04-29T12:59:16.731Z,15.17
2019-04-29T13:02:04.942Z,15.45
2019-04-29T13:04:51.648Z,15.37
2019-04-29T13:07:37.235Z,14.38
2019-04-29T13:10:44.094Z,14.76
2019-04-29T13:13:20.273Z,15.37
2019-04-29T13:16:21.803Z,15.28
2019-04-29T13:19:10.653Z,15.88
2019-04-29T13:21:30.477Z,15.48
2019-04-29T13:24:13.556Z,15.66
2019-04-29T13:26:35.316Z,15.74
2019-04-29T13:29:04.814Z,15.73
2019-04-29T13:31:38.608Z,15.45
2019-04-29T13:34:22.732Z,15.67
2019-04-29T13:36:42.461Z,15.46
2019-04-29T13:39:37.920Z,15.03
2019-04-29T13:41:57.960Z,14.70
2019-04-29T13:44:27.936Z,15.07
2019-04-29T13:47:19.056Z,15.16
2019-04-29T13:50:34.247Z,14.74
2019-04-29T13:52:51.565Z,14.99
2019-04-29T13:55:46.626Z,14.41
2019-04-29T13:57:55.012Z,14.86
2019-04-29T14:00:55.777Z,15.62
2019-04-29T14:03:54.601Z,15.66
2019-04-29T14:06:33.780Z,15.05
2019-04-29T14:09:03.835Z,14.63
2019-04-29T14:11:42.593Z,14.83
2019-04-29T14:14:11.709Z,14.61
2019-04-29T14:16:43.112Z,14.02
2019-04-29T14:19:13.817Z,15.26
2019-04-29T14:21:43.669Z,15.28
2019-04-29T14:24:13.316Z,15.88
2019-04-29T14:26:46.101Z,14.40
2019-04-29T14:29:13.289Z,14.18
2019-04-29T14:31:42.389Z,15.07
2019-04-29T14:34:20.660Z,14.89
2019-04-29T14:36:57.518Z,14.55
2019-04-29T14:39:36.548Z,14.67
2019-04-29T14:41:59.438Z,14.77
2019-04-29T14:44:45.654Z,14.78
2019-04-29T14:47:27.515Z,14.65
2019-04-29T14:49:59.036Z,14.57
2019-04-29T14:52:28.315Z,14.05
2019-04-29T14:54:57.403Z,14.26
2019-04-29T14:57:27.124Z,14.91
2019-04-29T14:59:56.479Z,14.40
2019-04-29T15:02:27.061Z,14.82
2019-04-29T15:04:56.963Z,14.53
2019-04-29T15:07:28.270Z,14.46
2019-04-29T15:10:02.113Z,14.55
2019-04-29T15:13:06.775Z,14.49
2019-04-29T15:16:03.518Z,13.94
2019-04-29T15:18:48.454Z,14.20
2019-04-29T15:21:32.590Z,5.39
2019-04-29T15:23:57.911Z,14.22
2019-04-29T15:26:27.183Z,14.56
2019-04-29T15:28:56.332Z,14.55
2019-04-29T15:31:25.940Z,14.72
2019-04-29T15:33:56.228Z,14.85
2019-04-29T15:36:25.429Z,14.85
2019-04-29T15:39:08.606Z,14.71
2019-04-29T15:41:33.318Z,14.13
2019-04-29T15:44:18.509Z,14.63
2019-04-29T15:46:48.720Z,15.01
2019-04-29T15:49:14.780Z,14.59
2019-04-29T15:51:59.689Z,14.58
2019-04-29T15:54:30.421Z,14.60
2019-04-29T15:57:03.831Z,14.89
2019-04-29T15:59:48.735Z,14.38
2019-04-29T16:02:11.745Z,14.42
2019-04-29T16:04:48.174Z,14.61
2019-04-29T16:07:28.856Z,14.74
2019-04-29T16:10:30.027Z,14.47
2019-04-29T16:13:06.722Z,14.63
2019-04-29T16:15:48.535Z,13.76
2019-04-29T16:20:43.590Z,14.04
2019-04-29T16:23:15.927Z,13.91
2019-04-29T16:25:46.228Z,14.14
2019-04-29T16:28:16.054Z,14.25
2019-04-29T16:30:45.293Z,14.08
2019-04-29T16:33:15.707Z,13.75
2019-04-29T16:35:48.066Z,14.42
2019-04-29T16:38:24.148Z,14.10
2019-04-29T16:41:19.568Z,14.74
2019-04-29T16:43:48.155Z,14.47
2019-04-29T16:46:24.264Z,14.25
2019-04-29T16:48:51.484Z,14.19
2019-04-29T16:51:20.588Z,13.88
2019-04-29T16:53:49.691Z,12.46
2019-04-29T16:56:20.912Z,13.11
2019-04-29T16:58:52.042Z,13.68
2019-04-29T17:01:21.360Z,13.49
2019-04-29T17:03:52.383Z,12.89
2019-04-29T17:06:35.940Z,12.69
2019-04-29T17:09:23.267Z,12.60
2019-04-29T17:11:56.347Z,12.83
2019-04-29T17:14:22.219Z,13.00
2019-04-29T17:16:53.125Z,12.75
2019-04-29T17:19:22.352Z,12.99
2019-04-29T17:21:51.912Z,13.13
2019-04-29T17:24:24.075Z,12.96
2019-04-29T17:27:02.627Z,13.15
2019-04-29T17:29:55.039Z,13.02
2019-04-29T17:32:44.628Z,12.77
2019-04-29T17:35:12.057Z,12.82
2019-04-29T17:35:13.992Z,13.89
2019-04-29T17:37:41.447Z,12.80
2019-04-29T17:40:14.881Z,12.40
2019-04-29T17:42:53.419Z,12.38
2019-04-29T17:45:32.833Z,11.55
2019-04-29T17:48:18.603Z,12.08
2019-04-29T17:50:56.584Z,3.09
2019-04-29T17:53:36.474Z,12.71
2019-04-29T17:56:24.680Z,12.29
2019-04-29T17:58:58.405Z,12.15
2019-04-29T18:01:46.911Z,12.77
2019-04-29T18:04:56.424Z,12.60
2019-04-29T18:07:40.449Z,12.26
2019-04-29T18:10:27.928Z,11.48
2019-04-29T18:12:56.572Z,12.12
2019-04-29T18:15:27.443Z,12.06
2019-04-29T18:18:00.302Z,12.00
2019-04-29T18:20:52.751Z,12.11
2019-04-29T18:23:44.684Z,11.95
2019-04-29T18:26:39.180Z,11.89
2019-04-29T18:29:08.476Z,11.79
2019-04-29T18:31:38.802Z,12.02
2019-04-29T18:34:08.184Z,12.32
2019-04-29T18:36:37.320Z,11.90
2019-04-29T18:39:09.655Z,12.02
2019-04-29T18:41:38.864Z,10.83
2019-04-29T18:44:08.165Z,11.26
2019-04-29T18:46:45.985Z,11.24
2019-04-29T18:49:19.035Z,11.05
2019-04-29T18:51:49.833Z,11.03
2019-04-29T18:54:20.581Z,11.14
2019-04-29T18:56:49.813Z,11.12
2019-04-29T18:59:25.336Z,11.23
2019-04-29T19:01:49.861Z,11.80
2019-04-29T19:04:29.490Z,11.59
2019-04-29T19:07:02.497Z,11.22
2019-04-29T19:09:35.863Z,11.35
2019-04-29T19:12:05.444Z,11.95
2019-04-29T19:14:35.699Z,11.68
2019-04-29T19:17:06.608Z,11.69
2019-04-29T19:19:39.328Z,11.19
2019-04-29T19:22:09.351Z,11.49
2019-04-29T19:24:40.448Z,11.65
2019-04-29T19:27:10.141Z,11.34
2019-04-29T19:29:43.235Z,11.12
2019-04-29T19:32:13.091Z,11.24
2019-04-29T19:34:43.439Z,10.98
2019-04-29T19:37:15.961Z,11.07
2019-04-29T19:39:45.066Z,10.93
2019-04-29T19:42:16.763Z,10.49
2019-04-29T19:44:45.277Z,10.80
2019-04-29T19:47:16.752Z,10.47
2019-04-29T19:49:46.177Z,10.82
2019-04-29T19:52:26.515Z,10.55
2019-04-29T19:54:46.443Z,10.58
2019-04-29T19:57:17.173Z,11.15
2019-04-29T19:59:51.455Z,10.75
2019-04-29T20:02:19.587Z,10.89
2019-04-29T20:05:16.474Z,10.72
2019-04-29T20:07:49.681Z,10.50
2019-04-29T20:10:20.370Z,10.85
2019-04-29T20:12:52.997Z,10.70
2019-04-29T20:15:25.166Z,10.63
2019-04-29T20:21:08.560Z,10.59
2019-04-29T20:23:36.290Z,10.51
2019-04-29T20:26:13.774Z,10.35
2019-04-29T20:28:35.939Z,10.37
2019-04-29T20:31:18.027Z,10.96
2019-04-29T20:33:36.809Z,10.61
2019-04-29T20:36:06.482Z,10.89
2019-04-29T20:38:39.431Z,10.67
2019-04-29T20:41:12.664Z,10.56
2019-04-29T20:43:39.623Z,10.47
2019-04-29T20:46:10.642Z,10.96
2019-04-29T20:48:42.430Z,10.49
2019-04-29T20:51:14.148Z,10.53
2019-04-29T20:53:50.616Z,10.33
2019-04-29T20:56:25.388Z,10.20
2019-04-29T20:58:52.887Z,10.40
2019-04-29T21:01:29.624Z,10.64
2019-04-29T21:04:01.995Z,10.24
2019-04-29T21:06:32.604Z,10.11
2019-04-29T21:09:02.063Z,9.91
2019-04-29T21:11:51.660Z,10.23
2019-04-29T21:14:34.024Z,10.24
2019-04-29T21:17:07.072Z,10.33
2019-04-29T21:19:39.040Z,7.65
2019-04-29T21:22:08.168Z,10.25
2019-04-29T21:24:40.456Z,10.12
2019-04-29T21:27:09.533Z,9.88
2019-04-29T21:29:39.010Z,10.35
2019-04-29T21:32:08.526Z,10.16
2019-04-29T21:34:46.088Z,10.26
2019-04-29T21:37:35.829Z,9.95
2019-04-29T21:40:18.559Z,10.55
2019-04-29T21:42:59.900Z,10.50
2019-04-29T21:45:28.993Z,10.46
2019-04-29T21:47:58.062Z,10.28
2019-04-29T21:50:33.965Z,10.20
2019-04-29T21:53:02.148Z,7.68
2019-04-29T21:55:31.253Z,9.95
2019-04-29T21:58:00.501Z,9.88
2019-04-29T22:00:31.404Z,9.73
2019-04-29T22:03:05.341Z,10.23
2019-04-29T22:05:35.037Z,10.38
2019-04-29T22:08:08.904Z,10.78
2019-04-29T22:10:39.318Z,10.23
2019-04-29T22:13:11.521Z,10.33
2019-04-29T22:15:45.496Z,10.11
2019-04-29T22:18:18.096Z,10.17
2019-04-29T22:20:49.143Z,10.41
2019-04-29T22:23:19.927Z,10.45
2019-04-29T22:25:49.056Z,10.85
2019-04-29T22:28:19.907Z,10.62
2019-04-29T22:30:49.892Z,11.43
2019-04-29T22:33:25.091Z,10.95
2019-04-29T22:35:55.612Z,11.00
2019-04-29T22:38:26.414Z,11.06
2019-04-29T22:40:57.309Z,11.18
2019-04-29T22:43:33.859Z,11.60
2019-04-29T22:46:04.708Z,10.49
2019-04-29T22:48:34.848Z,10.77
2019-04-29T22:51:10.180Z,10.67
2019-04-29T22:53:44.845Z,10.12
2019-04-29T22:56:15.929Z,10.61
2019-04-29T22:58:47.348Z,11.03
2019-04-29T23:01:18.633Z,10.91
2019-04-29T23:03:48.132Z,10.67
2019-04-29T23:06:18.302Z,10.50
2019-04-29T23:08:48.578Z,10.29
2019-04-29T23:11:23.131Z,10.35
2019-04-29T23:13:52.268Z,10.49
2019-04-29T23:16:21.585Z,10.63
2019-04-29T23:18:50.741Z,8.09
2019-04-29T23:21:44.875Z,9.96
2019-04-29T23:24:23.570Z,10.02
2019-04-29T23:26:52.759Z,10.32
2019-04-29T23:29:22.635Z,10.51
2019-04-29T23:31:51.722Z,9.92
2019-04-29T23:34:25.821Z,10.30
2019-04-29T23:36:54.480Z,10.27
2019-04-29T23:39:28.808Z,10.09
2019-04-29T23:41:57.914Z,10.31
2019-04-29T23:44:27.052Z,10.08
2019-04-29T23:46:56.164Z,9.31
2019-04-29T23:49:26.993Z,9.64
2019-04-29T23:51:56.156Z,10.10
2019-04-29T23:54:25.318Z,9.89
2019-04-29T23:57:17.508Z,9.92
